sensor_id;sensor_type;location;lat;lon;timestamp;P1;durP1;ratioP1;P2;durP2;ratioP2
3791;SDS011;1911;53.768;11.474;2023-04-05T00:00:28;5.77;;;3.10;;
3791;SDS011;1911;53.768;11.474;2023-04-05T00:02:56;6.50;;;3.23;;
3791;SDS011;1911;53.768;11.474;2023-04-05T00:05:23;6.50;;;3.67;;
3791;SDS011;1911;53.768;11.474;2023-04-05T00:07:58;5.67;;;3.53;;
3791;SDS011;1911;53.768;11.474;2023-04-05T00:10:29;6.73;;;3.27;;
3791;SDS011;1911;53.768;11.474;2023-04-05T00:12:56;7.90;;;3.37;;
3791;SDS011;1911;53.768;11.474;2023-04-05T00:15:22;8.97;;;3.63;;
3791;SDS011;1911;53.768;11.474;2023-04-05T00:17:48;8.97;;;3.60;;
3791;SDS011;1911;53.768;11.474;2023-04-05T00:20:14;7.50;;;3.70;;
3791;SDS011;1911;53.768;11.474;2023-04-05T00:22:40;9.33;;;3.77;;
3791;SDS011;1911;53.768;11.474;2023-04-05T00:25:10;7.20;;;4.00;;
3791;SDS011;1911;53.768;11.474;2023-04-05T00:27:36;8.50;;;4.57;;
3791;SDS011;1911;53.768;11.474;2023-04-05T00:30:04;5.60;;;3.47;;
3791;SDS011;1911;53.768;11.474;2023-04-05T00:32:32;7.37;;;3.50;;
3791;SDS011;1911;53.768;11.474;2023-04-05T00:35:00;9.77;;;4.50;;
3791;SDS011;1911;53.768;11.474;2023-04-05T00:37:26;4.87;;;3.37;;
3791;SDS011;1911;53.768;11.474;2023-04-05T00:39:51;7.90;;;4.67;;
3791;SDS011;1911;53.768;11.474;2023-04-05T00:42:18;9.70;;;4.00;;
3791;SDS011;1911;53.768;11.474;2023-04-05T00:44:44;10.13;;;4.20;;
3791;SDS011;1911;53.768;11.474;2023-04-05T00:47:11;6.00;;;2.90;;
3791;SDS011;1911;53.768;11.474;2023-04-05T00:49:38;7.57;;;4.10;;
3791;SDS011;1911;53.768;11.474;2023-04-05T00:52:05;8.27;;;3.73;;
3791;SDS011;1911;53.768;11.474;2023-04-05T00:54:32;9.70;;;3.30;;
3791;SDS011;1911;53.768;11.474;2023-04-05T00:57:03;7.97;;;4.07;;
3791;SDS011;1911;53.768;11.474;2023-04-05T00:59:40;9.60;;;3.80;;
3791;SDS011;1911;53.768;11.474;2023-04-05T01:03:07;5.50;;;3.00;;
3791;SDS011;1911;53.768;11.474;2023-04-05T01:12:31;6.83;;;2.93;;
3791;SDS011;1911;53.768;11.474;2023-04-05T01:14:58;7.30;;;2.60;;
3791;SDS011;1911;53.768;11.474;2023-04-05T01:17:29;3.60;;;2.67;;
3791;SDS011;1911;53.768;11.474;2023-04-05T01:20:06;3.87;;;2.57;;
3791;SDS011;1911;53.768;11.474;2023-04-05T01:31:22;7.17;;;3.07;;
3791;SDS011;1911;53.768;11.474;2023-04-05T01:36:30;3.90;;;2.37;;
3791;SDS011;1911;53.768;11.474;2023-04-05T01:39:04;6.00;;;2.70;;
3791;SDS011;1911;53.768;11.474;2023-04-05T01:41:33;5.20;;;2.90;;
3791;SDS011;1911;53.768;11.474;2023-04-05T01:43:59;11.00;;;3.83;;
3791;SDS011;1911;53.768;11.474;2023-04-05T01:46:24;5.50;;;2.97;;
3791;SDS011;1911;53.768;11.474;2023-04-05T01:48:50;4.53;;;2.43;;
3791;SDS011;1911;53.768;11.474;2023-04-05T01:51:16;6.87;;;2.73;;
3791;SDS011;1911;53.768;11.474;2023-04-05T01:53:44;5.00;;;2.90;;
3791;SDS011;1911;53.768;11.474;2023-04-05T01:56:10;5.03;;;2.30;;
3791;SDS011;1911;53.768;11.474;2023-04-05T01:58:41;4.70;;;2.80;;
3791;SDS011;1911;53.768;11.474;2023-04-05T02:01:08;5.83;;;2.97;;
3791;SDS011;1911;53.768;11.474;2023-04-05T02:03:42;5.23;;;2.67;;
3791;SDS011;1911;53.768;11.474;2023-04-05T02:06:12;4.60;;;2.93;;
3791;SDS011;1911;53.768;11.474;2023-04-05T02:08:38;3.50;;;2.53;;
3791;SDS011;1911;53.768;11.474;2023-04-05T02:11:03;3.53;;;2.17;;
3791;SDS011;1911;53.768;11.474;2023-04-05T02:13:29;9.53;;;2.07;;
3791;SDS011;1911;53.768;11.474;2023-04-05T02:15:56;4.70;;;2.43;;
3791;SDS011;1911;53.768;11.474;2023-04-05T02:18:24;5.90;;;2.20;;
3791;SDS011;1911;53.768;11.474;2023-04-05T02:21:04;3.03;;;1.80;;
3791;SDS011;1911;53.768;11.474;2023-04-05T02:23:35;2.47;;;1.57;;
3791;SDS011;1911;53.768;11.474;2023-04-05T02:26:06;4.93;;;2.10;;
3791;SDS011;1911;53.768;11.474;2023-04-05T02:28:32;4.10;;;1.50;;
3791;SDS011;1911;53.768;11.474;2023-04-05T02:30:58;2.77;;;1.50;;
3791;SDS011;1911;53.768;11.474;2023-04-05T02:33:35;3.00;;;1.70;;
3791;SDS011;1911;53.768;11.474;2023-04-05T02:36:03;3.63;;;2.33;;
3791;SDS011;1911;53.768;11.474;2023-04-05T02:38:30;3.60;;;1.77;;
3791;SDS011;1911;53.768;11.474;2023-04-05T02:41:02;5.73;;;1.90;;
3791;SDS011;1911;53.768;11.474;2023-04-05T02:43:28;3.13;;;1.60;;
3791;SDS011;1911;53.768;11.474;2023-04-05T02:45:54;3.07;;;1.50;;
3791;SDS011;1911;53.768;11.474;2023-04-05T02:48:22;3.77;;;1.77;;
3791;SDS011;1911;53.768;11.474;2023-04-05T02:50:49;3.23;;;1.80;;
3791;SDS011;1911;53.768;11.474;2023-04-05T02:53:18;3.73;;;1.93;;
3791;SDS011;1911;53.768;11.474;2023-04-05T02:55:52;3.83;;;1.70;;
3791;SDS011;1911;53.768;11.474;2023-04-05T02:58:24;2.70;;;1.50;;
3791;SDS011;1911;53.768;11.474;2023-04-05T03:00:52;3.55;;;2.13;;
3791;SDS011;1911;53.768;11.474;2023-04-05T03:03:19;2.50;;;1.60;;
3791;SDS011;1911;53.768;11.474;2023-04-05T03:06:01;4.87;;;1.70;;
3791;SDS011;1911;53.768;11.474;2023-04-05T03:08:40;6.00;;;1.90;;
3791;SDS011;1911;53.768;11.474;2023-04-05T03:11:32;4.13;;;2.30;;
3791;SDS011;1911;53.768;11.474;2023-04-05T03:13:59;3.53;;;1.83;;
3791;SDS011;1911;53.768;11.474;2023-04-05T03:16:25;3.67;;;1.90;;
3791;SDS011;1911;53.768;11.474;2023-04-05T03:18:52;4.67;;;1.87;;
3791;SDS011;1911;53.768;11.474;2023-04-05T03:21:24;4.77;;;1.90;;
3791;SDS011;1911;53.768;11.474;2023-04-05T03:24:03;4.57;;;2.10;;
3791;SDS011;1911;53.768;11.474;2023-04-05T03:26:30;5.07;;;2.20;;
3791;SDS011;1911;53.768;11.474;2023-04-05T03:28:57;3.43;;;1.93;;
3791;SDS011;1911;53.768;11.474;2023-04-05T03:31:22;4.43;;;1.20;;
3791;SDS011;1911;53.768;11.474;2023-04-05T03:33:48;5.23;;;1.50;;
3791;SDS011;1911;53.768;11.474;2023-04-05T03:36:14;3.57;;;1.70;;
3791;SDS011;1911;53.768;11.474;2023-04-05T03:38:42;2.53;;;1.73;;
3791;SDS011;1911;53.768;11.474;2023-04-05T03:41:09;3.67;;;1.40;;
3791;SDS011;1911;53.768;11.474;2023-04-05T03:43:35;3.63;;;1.53;;
3791;SDS011;1911;53.768;11.474;2023-04-05T03:46:06;3.17;;;1.20;;
3791;SDS011;1911;53.768;11.474;2023-04-05T03:48:33;5.27;;;1.90;;
3791;SDS011;1911;53.768;11.474;2023-04-05T03:50:59;3.60;;;1.40;;
3791;SDS011;1911;53.768;11.474;2023-04-05T03:53:35;3.58;;;1.48;;
3791;SDS011;1911;53.768;11.474;2023-04-05T03:56:02;3.93;;;1.60;;
3791;SDS011;1911;53.768;11.474;2023-04-05T03:58:29;3.87;;;1.37;;
3791;SDS011;1911;53.768;11.474;2023-04-05T04:00:54;7.43;;;1.63;;
3791;SDS011;1911;53.768;11.474;2023-04-05T04:03:20;3.50;;;1.57;;
3791;SDS011;1911;53.768;11.474;2023-04-05T04:05:46;3.93;;;1.37;;
3791;SDS011;1911;53.768;11.474;2023-04-05T04:08:16;3.80;;;1.77;;
3791;SDS011;1911;53.768;11.474;2023-04-05T04:10:41;7.97;;;1.93;;
3791;SDS011;1911;53.768;11.474;2023-04-05T04:13:08;3.40;;;1.80;;
3791;SDS011;1911;53.768;11.474;2023-04-05T04:15:34;5.85;;;1.67;;
3791;SDS011;1911;53.768;11.474;2023-04-05T04:17:59;2.97;;;1.70;;
3791;SDS011;1911;53.768;11.474;2023-04-05T04:20:25;2.53;;;1.53;;
3791;SDS011;1911;53.768;11.474;2023-04-05T04:22:54;5.38;;;1.90;;
3791;SDS011;1911;53.768;11.474;2023-04-05T04:25:22;5.10;;;1.80;;
3791;SDS011;1911;53.768;11.474;2023-04-05T04:27:51;7.40;;;1.70;;
3791;SDS011;1911;53.768;11.474;2023-04-05T04:30:20;5.23;;;1.60;;
3791;SDS011;1911;53.768;11.474;2023-04-05T04:32:47;6.28;;;1.52;;
3791;SDS011;1911;53.768;11.474;2023-04-05T04:35:26;4.30;;;1.20;;
3791;SDS011;1911;53.768;11.474;2023-04-05T04:37:56;5.03;;;1.33;;
3791;SDS011;1911;53.768;11.474;2023-04-05T04:43:09;3.70;;;1.48;;
3791;SDS011;1911;53.768;11.474;2023-04-05T04:45:45;2.95;;;1.30;;
3791;SDS011;1911;53.768;11.474;2023-04-05T04:48:13;2.95;;;1.10;;
3791;SDS011;1911;53.768;11.474;2023-04-05T04:50:40;2.72;;;1.60;;
3791;SDS011;1911;53.768;11.474;2023-04-05T04:53:08;2.25;;;1.50;;
3791;SDS011;1911;53.768;11.474;2023-04-05T04:55:34;2.45;;;1.42;;
3791;SDS011;1911;53.768;11.474;2023-04-05T04:58:00;3.90;;;1.97;;
3791;SDS011;1911;53.768;11.474;2023-04-05T05:00:33;5.13;;;1.65;;
3791;SDS011;1911;53.768;11.474;2023-04-05T05:03:01;3.53;;;1.80;;
3791;SDS011;1911;53.768;11.474;2023-04-05T05:05:35;4.10;;;1.33;;
3791;SDS011;1911;53.768;11.474;2023-04-05T05:08:06;4.43;;;1.60;;
3791;SDS011;1911;53.768;11.474;2023-04-05T05:10:33;4.50;;;2.07;;
3791;SDS011;1911;53.768;11.474;2023-04-05T05:13:00;3.05;;;1.65;;
3791;SDS011;1911;53.768;11.474;2023-04-05T05:15:26;4.40;;;1.70;;
3791;SDS011;1911;53.768;11.474;2023-04-05T05:17:57;5.80;;;1.73;;
3791;SDS011;1911;53.768;11.474;2023-04-05T05:20:24;6.67;;;2.03;;
3791;SDS011;1911;53.768;11.474;2023-04-05T05:22:53;4.33;;;2.10;;
3791;SDS011;1911;53.768;11.474;2023-04-05T05:25:24;6.30;;;2.10;;
3791;SDS011;1911;53.768;11.474;2023-04-05T05:27:55;4.25;;;1.98;;
3791;SDS011;1911;53.768;11.474;2023-04-05T05:30:21;2.87;;;1.43;;
3791;SDS011;1911;53.768;11.474;2023-04-05T05:32:47;5.23;;;1.70;;
3791;SDS011;1911;53.768;11.474;2023-04-05T05:35:15;4.43;;;2.13;;
3791;SDS011;1911;53.768;11.474;2023-04-05T05:37:41;3.00;;;1.73;;
3791;SDS011;1911;53.768;11.474;2023-04-05T05:40:09;2.63;;;1.60;;
3791;SDS011;1911;53.768;11.474;2023-04-05T05:42:38;2.60;;;1.90;;
3791;SDS011;1911;53.768;11.474;2023-04-05T05:45:04;4.90;;;2.80;;
3791;SDS011;1911;53.768;11.474;2023-04-05T05:47:33;4.00;;;1.70;;
3791;SDS011;1911;53.768;11.474;2023-04-05T05:49:59;6.23;;;1.97;;
3791;SDS011;1911;53.768;11.474;2023-04-05T05:52:28;4.03;;;1.60;;
3791;SDS011;1911;53.768;11.474;2023-04-05T05:54:55;3.00;;;1.50;;
3791;SDS011;1911;53.768;11.474;2023-04-05T05:57:21;4.93;;;1.67;;
3791;SDS011;1911;53.768;11.474;2023-04-05T05:59:51;6.20;;;2.40;;
3791;SDS011;1911;53.768;11.474;2023-04-05T06:02:16;3.10;;;1.60;;
3791;SDS011;1911;53.768;11.474;2023-04-05T06:04:43;8.97;;;2.93;;
3791;SDS011;1911;53.768;11.474;2023-04-05T06:07:09;4.20;;;2.10;;
3791;SDS011;1911;53.768;11.474;2023-04-05T06:09:35;2.70;;;2.23;;
3791;SDS011;1911;53.768;11.474;2023-04-05T06:12:00;5.87;;;2.17;;
3791;SDS011;1911;53.768;11.474;2023-04-05T06:14:29;3.10;;;1.83;;
3791;SDS011;1911;53.768;11.474;2023-04-05T06:16:57;4.70;;;2.10;;
3791;SDS011;1911;53.768;11.474;2023-04-05T06:19:25;7.20;;;2.30;;
3791;SDS011;1911;53.768;11.474;2023-04-05T06:21:51;3.33;;;1.70;;
3791;SDS011;1911;53.768;11.474;2023-04-05T06:24:19;2.90;;;1.87;;
3791;SDS011;1911;53.768;11.474;2023-04-05T06:26:48;4.67;;;1.60;;
3791;SDS011;1911;53.768;11.474;2023-04-05T06:29:14;2.67;;;1.70;;
3791;SDS011;1911;53.768;11.474;2023-04-05T07:12:05;7.20;;;3.93;;
3791;SDS011;1911;53.768;11.474;2023-04-05T07:32:25;4.90;;;2.37;;
3791;SDS011;1911;53.768;11.474;2023-04-05T07:35:52;3.73;;;2.40;;
3791;SDS011;1911;53.768;11.474;2023-04-05T07:48:53;14.20;;;4.70;;
3791;SDS011;1911;53.768;11.474;2023-04-05T07:51:48;7.90;;;3.77;;
3791;SDS011;1911;53.768;11.474;2023-04-05T07:54:17;4.40;;;3.20;;
3791;SDS011;1911;53.768;11.474;2023-04-05T07:56:45;5.23;;;3.13;;
3791;SDS011;1911;53.768;11.474;2023-04-05T07:59:11;6.70;;;3.37;;
3791;SDS011;1911;53.768;11.474;2023-04-05T08:01:37;6.00;;;3.50;;
3791;SDS011;1911;53.768;11.474;2023-04-05T08:04:19;6.80;;;3.33;;
3791;SDS011;1911;53.768;11.474;2023-04-05T08:14:11;6.60;;;3.60;;
3791;SDS011;1911;53.768;11.474;2023-04-05T08:26:44;12.03;;;3.90;;
3791;SDS011;1911;53.768;11.474;2023-04-05T08:32:29;5.50;;;3.70;;
3791;SDS011;1911;53.768;11.474;2023-04-05T08:38:21;8.30;;;4.70;;
3791;SDS011;1911;53.768;11.474;2023-04-05T08:44:26;7.20;;;3.10;;
3791;SDS011;1911;53.768;11.474;2023-04-05T08:47:03;6.33;;;4.00;;
3791;SDS011;1911;53.768;11.474;2023-04-05T09:51:11;4.50;;;3.30;;
3791;SDS011;1911;53.768;11.474;2023-04-05T09:53:59;8.83;;;3.83;;
3791;SDS011;1911;53.768;11.474;2023-04-05T09:56:37;9.90;;;4.23;;
3791;SDS011;1911;53.768;11.474;2023-04-05T09:59:17;10.80;;;5.47;;
3791;SDS011;1911;53.768;11.474;2023-04-05T10:01:44;7.70;;;3.60;;
3791;SDS011;1911;53.768;11.474;2023-04-05T10:04:54;6.23;;;3.30;;
3791;SDS011;1911;53.768;11.474;2023-04-05T10:07:20;6.87;;;3.70;;
3791;SDS011;1911;53.768;11.474;2023-04-05T10:09:46;7.70;;;3.60;;
3791;SDS011;1911;53.768;11.474;2023-04-05T10:12:23;6.40;;;3.70;;
3791;SDS011;1911;53.768;11.474;2023-04-05T10:14:50;3.47;;;3.17;;
3791;SDS011;1911;53.768;11.474;2023-04-05T10:30:55;12.77;;;6.90;;
3791;SDS011;1911;53.768;11.474;2023-04-05T10:33:29;9.70;;;4.20;;
3791;SDS011;1911;53.768;11.474;2023-04-05T10:41:41;8.10;;;3.13;;
3791;SDS011;1911;53.768;11.474;2023-04-05T10:44:11;5.20;;;3.10;;
3791;SDS011;1911;53.768;11.474;2023-04-05T10:46:39;6.40;;;2.97;;
3791;SDS011;1911;53.768;11.474;2023-04-05T10:51:53;3.70;;;3.10;;
3791;SDS011;1911;53.768;11.474;2023-04-05T10:54:20;6.93;;;3.53;;
3791;SDS011;1911;53.768;11.474;2023-04-05T10:56:46;5.10;;;3.30;;
3791;SDS011;1911;53.768;11.474;2023-04-05T10:59:13;5.33;;;2.80;;
3791;SDS011;1911;53.768;11.474;2023-04-05T11:01:39;4.50;;;2.80;;
3791;SDS011;1911;53.768;11.474;2023-04-05T11:04:15;8.37;;;3.67;;
3791;SDS011;1911;53.768;11.474;2023-04-05T11:06:41;4.20;;;2.73;;
3791;SDS011;1911;53.768;11.474;2023-04-05T11:11:43;6.73;;;2.80;;
3791;SDS011;1911;53.768;11.474;2023-04-05T11:14:33;5.90;;;3.20;;
3791;SDS011;1911;53.768;11.474;2023-04-05T11:17:00;5.30;;;3.40;;
3791;SDS011;1911;53.768;11.474;2023-04-05T11:22:07;5.20;;;3.00;;
3791;SDS011;1911;53.768;11.474;2023-04-05T11:24:49;4.90;;;2.60;;
3791;SDS011;1911;53.768;11.474;2023-04-05T11:27:27;6.50;;;3.10;;
3791;SDS011;1911;53.768;11.474;2023-04-05T11:29:53;2.60;;;2.00;;
3791;SDS011;1911;53.768;11.474;2023-04-05T11:32:19;5.03;;;2.87;;
3791;SDS011;1911;53.768;11.474;2023-04-05T11:35:29;4.20;;;2.30;;
3791;SDS011;1911;53.768;11.474;2023-04-05T11:40:31;7.80;;;3.00;;
3791;SDS011;1911;53.768;11.474;2023-04-05T11:43:02;5.67;;;3.50;;
3791;SDS011;1911;53.768;11.474;2023-04-05T11:45:32;5.40;;;3.17;;
3791;SDS011;1911;53.768;11.474;2023-04-05T11:48:08;3.87;;;2.50;;
3791;SDS011;1911;53.768;11.474;2023-04-05T11:50:38;4.20;;;2.70;;
3791;SDS011;1911;53.768;11.474;2023-04-05T11:53:15;4.67;;;3.00;;
3791;SDS011;1911;53.768;11.474;2023-04-05T11:55:43;4.27;;;2.97;;
3791;SDS011;1911;53.768;11.474;2023-04-05T11:58:22;6.17;;;2.90;;
3791;SDS011;1911;53.768;11.474;2023-04-05T12:01:01;3.83;;;2.73;;
3791;SDS011;1911;53.768;11.474;2023-04-05T12:03:28;5.93;;;3.07;;
3791;SDS011;1911;53.768;11.474;2023-04-05T12:05:55;10.40;;;3.53;;
3791;SDS011;1911;53.768;11.474;2023-04-05T12:08:23;3.83;;;2.20;;
3791;SDS011;1911;53.768;11.474;2023-04-05T12:11:10;3.50;;;2.67;;
3791;SDS011;1911;53.768;11.474;2023-04-05T12:13:36;8.73;;;3.70;;
3791;SDS011;1911;53.768;11.474;2023-04-05T12:16:03;2.83;;;1.80;;
3791;SDS011;1911;53.768;11.474;2023-04-05T12:18:31;3.43;;;2.17;;
3791;SDS011;1911;53.768;11.474;2023-04-05T12:20:58;6.33;;;2.77;;
3791;SDS011;1911;53.768;11.474;2023-04-05T12:23:26;2.70;;;2.23;;
3791;SDS011;1911;53.768;11.474;2023-04-05T12:25:53;5.00;;;3.30;;
3791;SDS011;1911;53.768;11.474;2023-04-05T12:28:21;4.63;;;3.17;;
3791;SDS011;1911;53.768;11.474;2023-04-05T12:30:50;4.43;;;2.73;;
3791;SDS011;1911;53.768;11.474;2023-04-05T12:33:26;5.73;;;3.23;;
3791;SDS011;1911;53.768;11.474;2023-04-05T12:35:52;8.03;;;3.50;;
3791;SDS011;1911;53.768;11.474;2023-04-05T12:38:18;5.37;;;3.60;;
3791;SDS011;1911;53.768;11.474;2023-04-05T12:40:44;4.90;;;3.00;;
3791;SDS011;1911;53.768;11.474;2023-04-05T12:43:09;4.00;;;3.00;;
3791;SDS011;1911;53.768;11.474;2023-04-05T12:45:35;4.30;;;2.93;;
3791;SDS011;1911;53.768;11.474;2023-04-05T12:48:09;9.67;;;4.90;;
3791;SDS011;1911;53.768;11.474;2023-04-05T12:50:43;7.83;;;4.50;;
3791;SDS011;1911;53.768;11.474;2023-04-05T12:53:16;5.60;;;4.10;;
3791;SDS011;1911;53.768;11.474;2023-04-05T12:55:52;9.07;;;4.60;;
3791;SDS011;1911;53.768;11.474;2023-04-05T12:58:19;8.20;;;4.57;;
3791;SDS011;1911;53.768;11.474;2023-04-05T13:00:46;8.07;;;5.33;;
3791;SDS011;1911;53.768;11.474;2023-04-05T13:03:19;6.53;;;4.03;;
3791;SDS011;1911;53.768;11.474;2023-04-05T13:05:46;5.73;;;4.43;;
3791;SDS011;1911;53.768;11.474;2023-04-05T13:08:14;7.67;;;5.13;;
3791;SDS011;1911;53.768;11.474;2023-04-05T13:10:42;9.37;;;4.77;;
3791;SDS011;1911;53.768;11.474;2023-04-05T13:13:08;7.63;;;4.50;;
3791;SDS011;1911;53.768;11.474;2023-04-05T13:15:34;4.87;;;3.03;;
3791;SDS011;1911;53.768;11.474;2023-04-05T13:18:00;6.97;;;3.93;;
3791;SDS011;1911;53.768;11.474;2023-04-05T13:20:25;7.20;;;4.60;;
3791;SDS011;1911;53.768;11.474;2023-04-05T13:22:51;5.20;;;3.70;;
3791;SDS011;1911;53.768;11.474;2023-04-05T13:25:17;5.93;;;3.80;;
3791;SDS011;1911;53.768;11.474;2023-04-05T13:27:42;5.80;;;3.77;;
3791;SDS011;1911;53.768;11.474;2023-04-05T13:30:09;4.13;;;3.03;;
3791;SDS011;1911;53.768;11.474;2023-04-05T13:32:35;4.10;;;2.87;;
3791;SDS011;1911;53.768;11.474;2023-04-05T13:35:00;3.83;;;2.03;;
3791;SDS011;1911;53.768;11.474;2023-04-05T13:37:26;3.60;;;2.37;;
3791;SDS011;1911;53.768;11.474;2023-04-05T13:39:52;5.90;;;3.07;;
3791;SDS011;1911;53.768;11.474;2023-04-05T13:42:17;5.60;;;2.70;;
3791;SDS011;1911;53.768;11.474;2023-04-05T13:44:43;4.70;;;2.57;;
3791;SDS011;1911;53.768;11.474;2023-04-05T13:47:08;4.27;;;2.27;;
3791;SDS011;1911;53.768;11.474;2023-04-05T13:49:34;3.90;;;2.10;;
3791;SDS011;1911;53.768;11.474;2023-04-05T13:52:00;4.43;;;2.53;;
3791;SDS011;1911;53.768;11.474;2023-04-05T13:54:25;3.90;;;2.10;;
3791;SDS011;1911;53.768;11.474;2023-04-05T13:56:51;3.63;;;1.93;;
3791;SDS011;1911;53.768;11.474;2023-04-05T13:59:17;2.87;;;1.80;;
3791;SDS011;1911;53.768;11.474;2023-04-05T14:01:43;3.23;;;2.00;;
3791;SDS011;1911;53.768;11.474;2023-04-05T14:04:12;6.00;;;1.97;;
3791;SDS011;1911;53.768;11.474;2023-04-05T14:06:38;2.23;;;1.53;;
3791;SDS011;1911;53.768;11.474;2023-04-05T14:09:04;5.07;;;1.63;;
3791;SDS011;1911;53.768;11.474;2023-04-05T14:11:30;2.87;;;1.70;;
3791;SDS011;1911;53.768;11.474;2023-04-05T14:13:56;6.23;;;2.27;;
3791;SDS011;1911;53.768;11.474;2023-04-05T14:16:22;4.57;;;1.40;;
3791;SDS011;1911;53.768;11.474;2023-04-05T14:18:48;3.97;;;1.23;;
3791;SDS011;1911;53.768;11.474;2023-04-05T14:21:13;2.80;;;1.63;;
3791;SDS011;1911;53.768;11.474;2023-04-05T14:23:40;1.93;;;1.27;;
3791;SDS011;1911;53.768;11.474;2023-04-05T14:26:05;2.30;;;1.50;;
3791;SDS011;1911;53.768;11.474;2023-04-05T14:28:31;2.40;;;1.30;;
3791;SDS011;1911;53.768;11.474;2023-04-05T14:30:57;3.73;;;1.70;;
3791;SDS011;1911;53.768;11.474;2023-04-05T14:33:23;2.43;;;1.37;;
3791;SDS011;1911;53.768;11.474;2023-04-05T14:35:50;3.97;;;1.77;;
3791;SDS011;1911;53.768;11.474;2023-04-05T14:38:16;3.00;;;1.43;;
3791;SDS011;1911;53.768;11.474;2023-04-05T14:40:42;6.17;;;1.70;;
3791;SDS011;1911;53.768;11.474;2023-04-05T14:43:07;3.63;;;1.80;;
3791;SDS011;1911;53.768;11.474;2023-04-05T14:45:33;2.30;;;1.40;;
3791;SDS011;1911;53.768;11.474;2023-04-05T14:47:59;2.70;;;2.00;;
3791;SDS011;1911;53.768;11.474;2023-04-05T14:50:25;3.47;;;2.17;;
3791;SDS011;1911;53.768;11.474;2023-04-05T14:52:53;5.97;;;2.37;;
3791;SDS011;1911;53.768;11.474;2023-04-05T14:55:22;2.90;;;1.93;;
3791;SDS011;1911;53.768;11.474;2023-04-05T14:57:47;3.80;;;2.70;;
3791;SDS011;1911;53.768;11.474;2023-04-05T15:00:13;2.80;;;2.03;;
3791;SDS011;1911;53.768;11.474;2023-04-05T15:02:39;3.13;;;2.30;;
3791;SDS011;1911;53.768;11.474;2023-04-05T15:05:05;4.10;;;2.83;;
3791;SDS011;1911;53.768;11.474;2023-04-05T15:07:31;3.77;;;2.87;;
3791;SDS011;1911;53.768;11.474;2023-04-05T15:09:57;3.77;;;2.47;;
3791;SDS011;1911;53.768;11.474;2023-04-05T15:12:23;8.40;;;2.70;;
3791;SDS011;1911;53.768;11.474;2023-04-05T15:14:48;3.20;;;2.20;;
3791;SDS011;1911;53.768;11.474;2023-04-05T15:17:18;7.33;;;3.43;;
3791;SDS011;1911;53.768;11.474;2023-04-05T15:19:44;5.43;;;3.30;;
3791;SDS011;1911;53.768;11.474;2023-04-05T15:22:10;5.30;;;2.93;;
3791;SDS011;1911;53.768;11.474;2023-04-05T15:24:36;5.13;;;2.70;;
3791;SDS011;1911;53.768;11.474;2023-04-05T15:27:05;4.70;;;3.20;;
3791;SDS011;1911;53.768;11.474;2023-04-05T15:29:41;3.60;;;2.93;;
3791;SDS011;1911;53.768;11.474;2023-04-05T15:32:09;5.07;;;3.33;;
3791;SDS011;1911;53.768;11.474;2023-04-05T15:34:34;5.70;;;3.00;;
3791;SDS011;1911;53.768;11.474;2023-04-05T15:37:00;6.07;;;4.10;;
3791;SDS011;1911;53.768;11.474;2023-04-05T15:39:26;10.90;;;4.43;;
3791;SDS011;1911;53.768;11.474;2023-04-05T15:41:51;6.90;;;4.03;;
3791;SDS011;1911;53.768;11.474;2023-04-05T15:44:17;6.37;;;3.53;;
3791;SDS011;1911;53.768;11.474;2023-04-05T15:46:43;4.97;;;3.03;;
3791;SDS011;1911;53.768;11.474;2023-04-05T15:49:09;5.80;;;3.70;;
3791;SDS011;1911;53.768;11.474;2023-04-05T15:51:35;4.07;;;3.20;;
3791;SDS011;1911;53.768;11.474;2023-04-05T15:54:01;5.27;;;3.77;;
3791;SDS011;1911;53.768;11.474;2023-04-05T15:56:27;5.70;;;3.40;;
3791;SDS011;1911;53.768;11.474;2023-04-05T15:58:53;6.83;;;4.17;;
3791;SDS011;1911;53.768;11.474;2023-04-05T16:01:20;5.83;;;3.50;;
3791;SDS011;1911;53.768;11.474;2023-04-05T16:03:45;5.60;;;3.50;;
3791;SDS011;1911;53.768;11.474;2023-04-05T16:06:11;5.93;;;3.17;;
3791;SDS011;1911;53.768;11.474;2023-04-05T16:08:37;6.07;;;4.50;;
3791;SDS011;1911;53.768;11.474;2023-04-05T16:11:03;8.10;;;4.80;;
3791;SDS011;1911;53.768;11.474;2023-04-05T16:13:29;9.07;;;4.27;;
3791;SDS011;1911;53.768;11.474;2023-04-05T16:15:55;11.90;;;5.13;;
3791;SDS011;1911;53.768;11.474;2023-04-05T16:18:20;6.50;;;4.63;;
3791;SDS011;1911;53.768;11.474;2023-04-05T16:20:47;10.30;;;5.50;;
3791;SDS011;1911;53.768;11.474;2023-04-05T16:23:14;7.83;;;4.90;;
3791;SDS011;1911;53.768;11.474;2023-04-05T16:25:40;9.00;;;4.87;;
3791;SDS011;1911;53.768;11.474;2023-04-05T16:28:06;8.53;;;5.47;;
3791;SDS011;1911;53.768;11.474;2023-04-05T16:30:34;6.73;;;4.33;;
3791;SDS011;1911;53.768;11.474;2023-04-05T16:33:00;7.93;;;4.63;;
3791;SDS011;1911;53.768;11.474;2023-04-05T16:35:26;8.67;;;5.33;;
3791;SDS011;1911;53.768;11.474;2023-04-05T16:37:52;9.60;;;6.43;;
3791;SDS011;1911;53.768;11.474;2023-04-05T16:40:17;6.03;;;4.07;;
3791;SDS011;1911;53.768;11.474;2023-04-05T16:42:43;19.90;;;5.80;;
3791;SDS011;1911;53.768;11.474;2023-04-05T16:45:08;7.17;;;5.13;;
3791;SDS011;1911;53.768;11.474;2023-04-05T16:47:35;9.73;;;5.80;;
3791;SDS011;1911;53.768;11.474;2023-04-05T16:50:01;10.80;;;7.37;;
3791;SDS011;1911;53.768;11.474;2023-04-05T16:52:27;11.63;;;7.03;;
3791;SDS011;1911;53.768;11.474;2023-04-05T16:54:53;11.03;;;7.30;;
3791;SDS011;1911;53.768;11.474;2023-04-05T16:57:20;14.00;;;7.67;;
3791;SDS011;1911;53.768;11.474;2023-04-05T16:59:45;18.73;;;9.20;;
3791;SDS011;1911;53.768;11.474;2023-04-05T17:02:11;12.53;;;8.00;;
3791;SDS011;1911;53.768;11.474;2023-04-05T17:04:37;15.90;;;8.57;;
3791;SDS011;1911;53.768;11.474;2023-04-05T17:07:02;17.70;;;9.30;;
3791;SDS011;1911;53.768;11.474;2023-04-05T17:09:28;13.70;;;7.60;;
3791;SDS011;1911;53.768;11.474;2023-04-05T17:11:54;16.83;;;9.37;;
3791;SDS011;1911;53.768;11.474;2023-04-05T17:14:20;10.87;;;7.20;;
3791;SDS011;1911;53.768;11.474;2023-04-05T17:16:46;10.57;;;6.93;;
3791;SDS011;1911;53.768;11.474;2023-04-05T17:19:12;10.27;;;7.03;;
3791;SDS011;1911;53.768;11.474;2023-04-05T17:21:38;11.70;;;7.30;;
3791;SDS011;1911;53.768;11.474;2023-04-05T17:24:04;13.40;;;6.90;;
3791;SDS011;1911;53.768;11.474;2023-04-05T17:26:30;10.03;;;6.40;;
3791;SDS011;1911;53.768;11.474;2023-04-05T17:28:56;13.37;;;7.00;;
3791;SDS011;1911;53.768;11.474;2023-04-05T17:31:22;12.17;;;7.60;;
3791;SDS011;1911;53.768;11.474;2023-04-05T17:33:48;17.23;;;7.73;;
3791;SDS011;1911;53.768;11.474;2023-04-05T17:36:14;15.40;;;8.70;;
3791;SDS011;1911;53.768;11.474;2023-04-05T17:38:40;14.17;;;8.77;;
3791;SDS011;1911;53.768;11.474;2023-04-05T17:41:06;15.10;;;9.20;;
3791;SDS011;1911;53.768;11.474;2023-04-05T17:43:32;15.20;;;9.83;;
3791;SDS011;1911;53.768;11.474;2023-04-05T17:45:57;16.20;;;9.37;;
3791;SDS011;1911;53.768;11.474;2023-04-05T17:48:23;14.20;;;7.20;;
3791;SDS011;1911;53.768;11.474;2023-04-05T17:50:48;12.60;;;7.70;;
3791;SDS011;1911;53.768;11.474;2023-04-05T17:53:17;14.10;;;8.20;;
3791;SDS011;1911;53.768;11.474;2023-04-05T17:55:54;20.03;;;9.67;;
3791;SDS011;1911;53.768;11.474;2023-04-05T18:01:02;14.33;;;8.60;;
3791;SDS011;1911;53.768;11.474;2023-04-05T18:03:27;13.33;;;8.57;;
3791;SDS011;1911;53.768;11.474;2023-04-05T18:05:53;14.53;;;9.37;;
3791;SDS011;1911;53.768;11.474;2023-04-05T18:08:19;14.50;;;9.17;;
3791;SDS011;1911;53.768;11.474;2023-04-05T18:10:46;15.67;;;9.03;;
3791;SDS011;1911;53.768;11.474;2023-04-05T18:16:12;15.33;;;9.23;;
3791;SDS011;1911;53.768;11.474;2023-04-05T18:18:38;15.57;;;8.80;;
3791;SDS011;1911;53.768;11.474;2023-04-05T18:21:03;15.93;;;9.60;;
3791;SDS011;1911;53.768;11.474;2023-04-05T18:23:29;17.17;;;9.50;;
3791;SDS011;1911;53.768;11.474;2023-04-05T18:25:55;15.30;;;9.20;;
3791;SDS011;1911;53.768;11.474;2023-04-05T18:28:22;18.00;;;11.27;;
3791;SDS011;1911;53.768;11.474;2023-04-05T18:35:59;17.40;;;9.47;;
3791;SDS011;1911;53.768;11.474;2023-04-05T18:38:24;14.30;;;9.73;;
3791;SDS011;1911;53.768;11.474;2023-04-05T18:40:57;17.87;;;10.20;;
3791;SDS011;1911;53.768;11.474;2023-04-05T18:43:27;16.57;;;10.67;;
3791;SDS011;1911;53.768;11.474;2023-04-05T18:46:01;25.17;;;12.20;;
3791;SDS011;1911;53.768;11.474;2023-04-05T18:48:26;28.63;;;15.27;;